sensor_id;sensor_type;location;lat;lon;timestamp;temperature;humidity
30648;DHT22;17683;53.360;9.736;2023-08-06T00:02:23;15.80;99.90
30648;DHT22;17683;53.360;9.736;2023-08-06T00:04:49;15.70;99.90
30648;DHT22;17683;53.360;9.736;2023-08-06T00:07:14;15.80;99.90
30648;DHT22;17683;53.360;9.736;2023-08-06T00:09:40;15.70;99.90
30648;DHT22;17683;53.360;9.736;2023-08-06T00:12:06;15.70;99.90
30648;DHT22;17683;53.360;9.736;2023-08-06T00:14:32;15.60;99.90
30648;DHT22;17683;53.360;9.736;2023-08-06T00:16:58;15.60;99.90
30648;DHT22;17683;53.360;9.736;2023-08-06T00:19:23;15.60;99.90
30648;DHT22;17683;53.360;9.736;2023-08-06T00:21:49;15.60;99.90
30648;DHT22;17683;53.360;9.736;2023-08-06T00:24:15;15.60;99.90
30648;DHT22;17683;53.360;9.736;2023-08-06T00:26:40;15.60;99.90
30648;DHT22;17683;53.360;9.736;2023-08-06T00:29:06;15.60;99.90
30648;DHT22;17683;53.360;9.736;2023-08-06T00:31:32;15.60;99.90
30648;DHT22;17683;53.360;9.736;2023-08-06T00:33:57;15.60;99.90
30648;DHT22;17683;53.360;9.736;2023-08-06T00:36:23;15.60;99.90
30648;DHT22;17683;53.360;9.736;2023-08-06T00:38:48;15.60;99.90
30648;DHT22;17683;53.360;9.736;2023-08-06T00:41:14;15.60;99.90
30648;DHT22;17683;53.360;9.736;2023-08-06T00:43:40;15.70;99.90
30648;DHT22;17683;53.360;9.736;2023-08-06T00:46:06;15.70;99.90
30648;DHT22;17683;53.360;9.736;2023-08-06T00:48:32;15.70;99.90
30648;DHT22;17683;53.360;9.736;2023-08-06T00:50:58;15.70;99.90
30648;DHT22;17683;53.360;9.736;2023-08-06T00:53:24;15.60;99.90
30648;DHT22;17683;53.360;9.736;2023-08-06T00:55:50;15.60;99.90
30648;DHT22;17683;53.360;9.736;2023-08-06T00:58:16;15.70;99.90
30648;DHT22;17683;53.360;9.736;2023-08-06T01:00:42;15.60;99.90
30648;DHT22;17683;53.360;9.736;2023-08-06T01:03:08;15.60;99.90
30648;DHT22;17683;53.360;9.736;2023-08-06T01:05:34;15.60;99.90
30648;DHT22;17683;53.360;9.736;2023-08-06T01:10:39;15.60;99.90
30648;DHT22;17683;53.360;9.736;2023-08-06T01:13:39;15.60;99.90
30648;DHT22;17683;53.360;9.736;2023-08-06T01:16:07;15.60;99.90
30648;DHT22;17683;53.360;9.736;2023-08-06T01:18:34;15.50;99.90
30648;DHT22;17683;53.360;9.736;2023-08-06T01:20:59;15.50;99.90
30648;DHT22;17683;53.360;9.736;2023-08-06T01:23:25;15.60;99.90
30648;DHT22;17683;53.360;9.736;2023-08-06T01:28:46;15.50;99.90
30648;DHT22;17683;53.360;9.736;2023-08-06T01:31:24;15.50;99.90
30648;DHT22;17683;53.360;9.736;2023-08-06T01:33:53;15.50;99.90
30648;DHT22;17683;53.360;9.736;2023-08-06T01:36:20;15.50;99.90
30648;DHT22;17683;53.360;9.736;2023-08-06T01:38:46;15.50;99.90
30648;DHT22;17683;53.360;9.736;2023-08-06T01:41:12;15.60;99.90
30648;DHT22;17683;53.360;9.736;2023-08-06T01:43:37;15.60;99.90
30648;DHT22;17683;53.360;9.736;2023-08-06T01:46:03;15.60;99.90
30648;DHT22;17683;53.360;9.736;2023-08-06T01:48:29;15.50;99.90
30648;DHT22;17683;53.360;9.736;2023-08-06T01:50:54;15.50;99.90
30648;DHT22;17683;53.360;9.736;2023-08-06T01:53:20;15.50;99.90
30648;DHT22;17683;53.360;9.736;2023-08-06T01:55:49;15.50;99.90
30648;DHT22;17683;53.360;9.736;2023-08-06T01:58:14;15.50;99.90
30648;DHT22;17683;53.360;9.736;2023-08-06T02:00:40;15.60;99.90
30648;DHT22;17683;53.360;9.736;2023-08-06T02:03:06;15.60;99.90
30648;DHT22;17683;53.360;9.736;2023-08-06T02:05:32;15.50;99.90
30648;DHT22;17683;53.360;9.736;2023-08-06T02:07:57;15.60;99.90
30648;DHT22;17683;53.360;9.736;2023-08-06T02:10:23;15.60;99.90
30648;DHT22;17683;53.360;9.736;2023-08-06T02:12:49;15.60;99.90
30648;DHT22;17683;53.360;9.736;2023-08-06T02:15:15;15.60;99.90
30648;DHT22;17683;53.360;9.736;2023-08-06T02:17:40;15.60;99.90
30648;DHT22;17683;53.360;9.736;2023-08-06T02:20:07;15.50;99.90
30648;DHT22;17683;53.360;9.736;2023-08-06T02:22:32;15.50;99.90
30648;DHT22;17683;53.360;9.736;2023-08-06T02:24:59;15.50;99.90
30648;DHT22;17683;53.360;9.736;2023-08-06T02:27:25;15.50;99.90
30648;DHT22;17683;53.360;9.736;2023-08-06T02:29:50;15.50;99.90
30648;DHT22;17683;53.360;9.736;2023-08-06T02:32:16;15.50;99.90
30648;DHT22;17683;53.360;9.736;2023-08-06T02:34:42;15.50;99.90
30648;DHT22;17683;53.360;9.736;2023-08-06T02:37:08;15.50;99.90
30648;DHT22;17683;53.360;9.736;2023-08-06T02:39:33;15.50;99.90
30648;DHT22;17683;53.360;9.736;2023-08-06T02:42:01;15.50;99.90
30648;DHT22;17683;53.360;9.736;2023-08-06T02:44:27;15.50;99.90
30648;DHT22;17683;53.360;9.736;2023-08-06T02:46:53;15.50;99.90
30648;DHT22;17683;53.360;9.736;2023-08-06T02:49:19;15.50;99.90
30648;DHT22;17683;53.360;9.736;2023-08-06T02:51:45;15.50;99.90
30648;DHT22;17683;53.360;9.736;2023-08-06T02:54:11;15.50;99.90
30648;DHT22;17683;53.360;9.736;2023-08-06T02:56:36;15.50;99.90
30648;DHT22;17683;53.360;9.736;2023-08-06T02:59:03;15.50;99.90
30648;DHT22;17683;53.360;9.736;2023-08-06T03:01:29;15.50;99.90
30648;DHT22;17683;53.360;9.736;2023-08-06T03:03:54;15.40;99.90
30648;DHT22;17683;53.360;9.736;2023-08-06T03:06:20;15.40;99.90
30648;DHT22;17683;53.360;9.736;2023-08-06T03:08:46;15.30;99.90
30648;DHT22;17683;53.360;9.736;2023-08-06T03:11:11;15.20;99.90
30648;DHT22;17683;53.360;9.736;2023-08-06T03:13:37;15.20;99.90
30648;DHT22;17683;53.360;9.736;2023-08-06T03:16:03;15.20;99.90
30648;DHT22;17683;53.360;9.736;2023-08-06T03:18:29;15.30;99.90
30648;DHT22;17683;53.360;9.736;2023-08-06T03:20:54;15.20;99.90
30648;DHT22;17683;53.360;9.736;2023-08-06T03:23:20;15.20;99.90
30648;DHT22;17683;53.360;9.736;2023-08-06T03:25:46;15.20;99.90
30648;DHT22;17683;53.360;9.736;2023-08-06T03:28:12;15.20;99.90
30648;DHT22;17683;53.360;9.736;2023-08-06T03:30:38;15.30;99.90
30648;DHT22;17683;53.360;9.736;2023-08-06T03:33:04;15.30;99.90
30648;DHT22;17683;53.360;9.736;2023-08-06T03:35:29;15.30;99.90
30648;DHT22;17683;53.360;9.736;2023-08-06T03:37:55;15.20;99.90
30648;DHT22;17683;53.360;9.736;2023-08-06T03:40:21;15.20;99.90
30648;DHT22;17683;53.360;9.736;2023-08-06T03:42:47;15.20;99.90
30648;DHT22;17683;53.360;9.736;2023-08-06T03:45:12;15.20;99.90
30648;DHT22;17683;53.360;9.736;2023-08-06T03:47:38;15.20;99.90
30648;DHT22;17683;53.360;9.736;2023-08-06T03:50:04;15.10;99.90
30648;DHT22;17683;53.360;9.736;2023-08-06T03:52:30;15.10;99.90
30648;DHT22;17683;53.360;9.736;2023-08-06T03:54:55;15.00;99.90
30648;DHT22;17683;53.360;9.736;2023-08-06T03:57:21;15.00;99.90
30648;DHT22;17683;53.360;9.736;2023-08-06T03:59:47;15.10;99.90
30648;DHT22;17683;53.360;9.736;2023-08-06T04:02:12;15.10;99.90
30648;DHT22;17683;53.360;9.736;2023-08-06T04:04:38;15.10;99.90
30648;DHT22;17683;53.360;9.736;2023-08-06T04:07:04;15.10;99.90
30648;DHT22;17683;53.360;9.736;2023-08-06T04:09:30;15.10;99.90
30648;DHT22;17683;53.360;9.736;2023-08-06T04:11:55;15.10;99.90
30648;DHT22;17683;53.360;9.736;2023-08-06T04:14:21;15.10;99.90
30648;DHT22;17683;53.360;9.736;2023-08-06T04:16:47;15.10;99.90
30648;DHT22;17683;53.360;9.736;2023-08-06T04:19:13;15.10;99.90
30648;DHT22;17683;53.360;9.736;2023-08-06T04:21:38;15.10;99.90
30648;DHT22;17683;53.360;9.736;2023-08-06T04:24:04;15.10;99.90
30648;DHT22;17683;53.360;9.736;2023-08-06T04:26:30;15.10;99.90
30648;DHT22;17683;53.360;9.736;2023-08-06T04:28:55;15.10;99.90
30648;DHT22;17683;53.360;9.736;2023-08-06T04:31:22;15.10;99.90
30648;DHT22;17683;53.360;9.736;2023-08-06T04:33:48;15.20;99.90
30648;DHT22;17683;53.360;9.736;2023-08-06T04:36:14;15.20;99.90
30648;DHT22;17683;53.360;9.736;2023-08-06T04:38:40;15.20;99.90
30648;DHT22;17683;53.360;9.736;2023-08-06T04:41:10;15.20;99.90
30648;DHT22;17683;53.360;9.736;2023-08-06T04:43:36;15.20;99.90
30648;DHT22;17683;53.360;9.736;2023-08-06T04:46:01;15.20;99.90
30648;DHT22;17683;53.360;9.736;2023-08-06T04:48:27;15.20;99.90
30648;DHT22;17683;53.360;9.736;2023-08-06T04:50:53;15.20;99.90
30648;DHT22;17683;53.360;9.736;2023-08-06T04:53:20;15.20;99.90
30648;DHT22;17683;53.360;9.736;2023-08-06T04:55:45;15.30;99.90
30648;DHT22;17683;53.360;9.736;2023-08-06T04:58:12;15.30;99.90
30648;DHT22;17683;53.360;9.736;2023-08-06T05:00:38;15.30;99.90
30648;DHT22;17683;53.360;9.736;2023-08-06T05:03:05;15.30;99.90
30648;DHT22;17683;53.360;9.736;2023-08-06T05:05:30;15.30;99.90
30648;DHT22;17683;53.360;9.736;2023-08-06T05:07:57;15.30;99.90
30648;DHT22;17683;53.360;9.736;2023-08-06T05:10:25;15.40;99.90
30648;DHT22;17683;53.360;9.736;2023-08-06T05:12:51;15.40;99.90
30648;DHT22;17683;53.360;9.736;2023-08-06T05:15:17;15.50;99.90
30648;DHT22;17683;53.360;9.736;2023-08-06T05:17:42;15.50;99.90
30648;DHT22;17683;53.360;9.736;2023-08-06T05:20:08;15.50;99.90
30648;DHT22;17683;53.360;9.736;2023-08-06T05:22:34;15.60;99.90
30648;DHT22;17683;53.360;9.736;2023-08-06T05:25:00;15.60;99.90
30648;DHT22;17683;53.360;9.736;2023-08-06T05:27:25;15.60;99.90
30648;DHT22;17683;53.360;9.736;2023-08-06T05:29:55;15.60;99.90
30648;DHT22;17683;53.360;9.736;2023-08-06T05:32:21;15.60;99.90
30648;DHT22;17683;53.360;9.736;2023-08-06T05:34:47;15.60;99.90
30648;DHT22;17683;53.360;9.736;2023-08-06T05:37:13;15.70;99.90
30648;DHT22;17683;53.360;9.736;2023-08-06T05:39:38;15.70;99.90
30648;DHT22;17683;53.360;9.736;2023-08-06T05:42:05;15.80;99.90
30648;DHT22;17683;53.360;9.736;2023-08-06T05:44:31;15.80;99.90
30648;DHT22;17683;53.360;9.736;2023-08-06T05:46:56;15.80;99.90
30648;DHT22;17683;53.360;9.736;2023-08-06T05:49:22;15.90;99.90
30648;DHT22;17683;53.360;9.736;2023-08-06T05:51:47;15.90;99.90
30648;DHT22;17683;53.360;9.736;2023-08-06T05:54:14;16.00;99.90
30648;DHT22;17683;53.360;9.736;2023-08-06T05:56:39;16.00;99.90
30648;DHT22;17683;53.360;9.736;2023-08-06T05:59:05;16.00;99.90
30648;DHT22;17683;53.360;9.736;2023-08-06T06:01:31;16.10;99.90
30648;DHT22;17683;53.360;9.736;2023-08-06T06:03:56;16.10;99.90
30648;DHT22;17683;53.360;9.736;2023-08-06T06:06:22;16.10;99.90
30648;DHT22;17683;53.360;9.736;2023-08-06T06:08:48;16.20;99.90
30648;DHT22;17683;53.360;9.736;2023-08-06T06:11:13;16.20;99.90
30648;DHT22;17683;53.360;9.736;2023-08-06T06:13:39;16.30;99.90
30648;DHT22;17683;53.360;9.736;2023-08-06T06:16:05;16.40;99.90
30648;DHT22;17683;53.360;9.736;2023-08-06T06:18:30;16.40;99.90
30648;DHT22;17683;53.360;9.736;2023-08-06T06:20:56;16.40;99.90
30648;DHT22;17683;53.360;9.736;2023-08-06T06:23:22;16.50;99.90
30648;DHT22;17683;53.360;9.736;2023-08-06T06:25:51;16.40;99.90
30648;DHT22;17683;53.360;9.736;2023-08-06T06:28:18;16.50;99.90
30648;DHT22;17683;53.360;9.736;2023-08-06T06:30:43;16.50;99.90
30648;DHT22;17683;53.360;9.736;2023-08-06T06:33:09;16.50;99.90
30648;DHT22;17683;53.360;9.736;2023-08-06T06:35:35;16.50;99.90
30648;DHT22;17683;53.360;9.736;2023-08-06T06:38:00;16.60;99.90
30648;DHT22;17683;53.360;9.736;2023-08-06T06:40:26;16.60;99.90
30648;DHT22;17683;53.360;9.736;2023-08-06T06:42:52;16.70;99.90
30648;DHT22;17683;53.360;9.736;2023-08-06T06:45:18;16.70;99.90
30648;DHT22;17683;53.360;9.736;2023-08-06T06:47:43;16.60;99.90
30648;DHT22;17683;53.360;9.736;2023-08-06T06:50:09;16.70;99.90
30648;DHT22;17683;53.360;9.736;2023-08-06T06:52:35;16.80;99.90
30648;DHT22;17683;53.360;9.736;2023-08-06T06:55:01;16.80;99.90
30648;DHT22;17683;53.360;9.736;2023-08-06T06:57:26;16.90;99.90
30648;DHT22;17683;53.360;9.736;2023-08-06T06:59:52;17.00;99.90
30648;DHT22;17683;53.360;9.736;2023-08-06T07:02:18;17.00;99.90
30648;DHT22;17683;53.360;9.736;2023-08-06T07:04:44;17.20;99.90
30648;DHT22;17683;53.360;9.736;2023-08-06T07:07:10;17.20;99.90
30648;DHT22;17683;53.360;9.736;2023-08-06T07:09:35;17.30;99.90
30648;DHT22;17683;53.360;9.736;2023-08-06T07:12:01;17.30;99.90
30648;DHT22;17683;53.360;9.736;2023-08-06T07:14:28;17.30;99.90
30648;DHT22;17683;53.360;9.736;2023-08-06T07:16:55;17.40;99.90
30648;DHT22;17683;53.360;9.736;2023-08-06T07:19:20;17.50;99.90
30648;DHT22;17683;53.360;9.736;2023-08-06T07:21:46;17.50;99.90
30648;DHT22;17683;53.360;9.736;2023-08-06T07:24:12;17.50;99.90
30648;DHT22;17683;53.360;9.736;2023-08-06T07:26:38;17.50;99.90
30648;DHT22;17683;53.360;9.736;2023-08-06T07:29:03;17.40;99.90
30648;DHT22;17683;53.360;9.736;2023-08-06T07:31:29;17.50;99.90
30648;DHT22;17683;53.360;9.736;2023-08-06T07:33:55;17.50;99.90
30648;DHT22;17683;53.360;9.736;2023-08-06T07:36:20;17.50;99.90
30648;DHT22;17683;53.360;9.736;2023-08-06T07:38:46;17.50;99.90
30648;DHT22;17683;53.360;9.736;2023-08-06T07:41:14;17.50;99.90
30648;DHT22;17683;53.360;9.736;2023-08-06T07:43:39;17.60;99.90
30648;DHT22;17683;53.360;9.736;2023-08-06T07:46:05;17.60;99.90
30648;DHT22;17683;53.360;9.736;2023-08-06T07:48:31;17.70;99.90
30648;DHT22;17683;53.360;9.736;2023-08-06T07:50:57;17.70;99.90
30648;DHT22;17683;53.360;9.736;2023-08-06T07:53:24;17.70;99.90
30648;DHT22;17683;53.360;9.736;2023-08-06T07:55:52;17.70;99.90
30648;DHT22;17683;53.360;9.736;2023-08-06T07:58:19;17.80;99.90
30648;DHT22;17683;53.360;9.736;2023-08-06T08:00:45;17.80;99.90
30648;DHT22;17683;53.360;9.736;2023-08-06T08:03:12;17.80;99.90
30648;DHT22;17683;53.360;9.736;2023-08-06T08:05:39;17.80;99.90
30648;DHT22;17683;53.360;9.736;2023-08-06T08:08:05;17.90;99.90
30648;DHT22;17683;53.360;9.736;2023-08-06T08:10:31;18.00;99.90
30648;DHT22;17683;53.360;9.736;2023-08-06T08:12:57;18.00;99.90
30648;DHT22;17683;53.360;9.736;2023-08-06T08:15:24;18.10;99.90
30648;DHT22;17683;53.360;9.736;2023-08-06T08:17:52;18.10;99.90
30648;DHT22;17683;53.360;9.736;2023-08-06T08:20:17;18.10;99.90
30648;DHT22;17683;53.360;9.736;2023-08-06T08:22:43;18.20;99.90
30648;DHT22;17683;53.360;9.736;2023-08-06T08:25:09;18.20;99.90
30648;DHT22;17683;53.360;9.736;2023-08-06T08:27:35;18.30;99.90
30648;DHT22;17683;53.360;9.736;2023-08-06T08:30:01;18.30;99.90
30648;DHT22;17683;53.360;9.736;2023-08-06T08:32:27;18.40;99.90
30648;DHT22;17683;53.360;9.736;2023-08-06T08:34:52;18.40;99.90
30648;DHT22;17683;53.360;9.736;2023-08-06T08:37:18;18.30;99.90
30648;DHT22;17683;53.360;9.736;2023-08-06T08:39:44;18.30;99.90
30648;DHT22;17683;53.360;9.736;2023-08-06T08:42:10;18.40;99.90
30648;DHT22;17683;53.360;9.736;2023-08-06T08:44:36;18.40;99.90
30648;DHT22;17683;53.360;9.736;2023-08-06T08:47:08;18.50;99.90
30648;DHT22;17683;53.360;9.736;2023-08-06T08:49:35;18.50;99.90
30648;DHT22;17683;53.360;9.736;2023-08-06T08:52:03;18.50;99.90
30648;DHT22;17683;53.360;9.736;2023-08-06T08:54:32;18.70;99.90
30648;DHT22;17683;53.360;9.736;2023-08-06T08:56:59;18.70;99.90
30648;DHT22;17683;53.360;9.736;2023-08-06T08:59:24;18.70;99.90
30648;DHT22;17683;53.360;9.736;2023-08-06T09:01:51;18.80;99.90
30648;DHT22;17683;53.360;9.736;2023-08-06T09:04:20;18.90;99.90
30648;DHT22;17683;53.360;9.736;2023-08-06T09:06:50;19.10;99.90
30648;DHT22;17683;53.360;9.736;2023-08-06T09:09:26;19.30;99.90
30648;DHT22;17683;53.360;9.736;2023-08-06T09:11:55;19.40;99.90
30648;DHT22;17683;53.360;9.736;2023-08-06T09:14:23;19.40;99.90
30648;DHT22;17683;53.360;9.736;2023-08-06T09:16:49;19.60;99.90
30648;DHT22;17683;53.360;9.736;2023-08-06T09:19:14;19.70;99.90
30648;DHT22;17683;53.360;9.736;2023-08-06T09:21:46;19.80;99.90
30648;DHT22;17683;53.360;9.736;2023-08-06T09:24:15;19.90;99.90
30648;DHT22;17683;53.360;9.736;2023-08-06T09:26:42;19.80;99.90
30648;DHT22;17683;53.360;9.736;2023-08-06T09:29:10;19.90;99.90
30648;DHT22;17683;53.360;9.736;2023-08-06T09:31:51;20.00;99.90
30648;DHT22;17683;53.360;9.736;2023-08-06T09:34:22;20.00;99.90
30648;DHT22;17683;53.360;9.736;2023-08-06T09:36:49;20.00;99.90
30648;DHT22;17683;53.360;9.736;2023-08-06T09:39:17;20.00;99.90
30648;DHT22;17683;53.360;9.736;2023-08-06T09:41:44;20.10;99.90
30648;DHT22;17683;53.360;9.736;2023-08-06T09:44:20;20.20;99.90
30648;DHT22;17683;53.360;9.736;2023-08-06T09:46:49;20.30;99.90
30648;DHT22;17683;53.360;9.736;2023-08-06T09:49:17;20.50;99.90
30648;DHT22;17683;53.360;9.736;2023-08-06T09:51:43;20.70;99.90
30648;DHT22;17683;53.360;9.736;2023-08-06T09:54:12;20.80;99.90
30648;DHT22;17683;53.360;9.736;2023-08-06T09:56:38;20.80;99.90
30648;DHT22;17683;53.360;9.736;2023-08-06T09:59:05;20.90;99.90
30648;DHT22;17683;53.360;9.736;2023-08-06T10:01:34;20.80;99.90
30648;DHT22;17683;53.360;9.736;2023-08-06T10:04:03;20.70;99.90
30648;DHT22;17683;53.360;9.736;2023-08-06T10:06:29;20.60;99.90
30648;DHT22;17683;53.360;9.736;2023-08-06T10:08:55;20.50;99.90
30648;DHT22;17683;53.360;9.736;2023-08-06T10:11:23;20.60;99.90
30648;DHT22;17683;53.360;9.736;2023-08-06T10:13:55;20.70;99.90
30648;DHT22;17683;53.360;9.736;2023-08-06T10:16:22;20.80;99.90
30648;DHT22;17683;53.360;9.736;2023-08-06T10:18:49;20.80;99.90
30648;DHT22;17683;53.360;9.736;2023-08-06T10:21:15;20.90;99.90
30648;DHT22;17683;53.360;9.736;2023-08-06T10:23:41;21.00;99.90
30648;DHT22;17683;53.360;9.736;2023-08-06T10:26:07;21.20;99.90
30648;DHT22;17683;53.360;9.736;2023-08-06T10:28:40;21.30;99.90
30648;DHT22;17683;53.360;9.736;2023-08-06T10:31:06;21.30;99.90
30648;DHT22;17683;53.360;9.736;2023-08-06T10:33:47;21.30;99.90
30648;DHT22;17683;53.360;9.736;2023-08-06T10:36:14;21.30;99.90
30648;DHT22;17683;53.360;9.736;2023-08-06T10:38:48;21.10;99.90
30648;DHT22;17683;53.360;9.736;2023-08-06T10:41:23;21.00;99.90
30648;DHT22;17683;53.360;9.736;2023-08-06T10:43:52;21.10;99.90
30648;DHT22;17683;53.360;9.736;2023-08-06T10:46:30;21.20;99.90
30648;DHT22;17683;53.360;9.736;2023-08-06T10:48:56;21.20;99.90
30648;DHT22;17683;53.360;9.736;2023-08-06T10:51:22;21.20;99.90
30648;DHT22;17683;53.360;9.736;2023-08-06T10:53:49;21.40;99.90
30648;DHT22;17683;53.360;9.736;2023-08-06T10:56:20;21.50;99.90
30648;DHT22;17683;53.360;9.736;2023-08-06T10:58:48;21.50;99.90
30648;DHT22;17683;53.360;9.736;2023-08-06T11:01:14;21.50;99.90
30648;DHT22;17683;53.360;9.736;2023-08-06T11:03:41;21.40;99.90
30648;DHT22;17683;53.360;9.736;2023-08-06T11:06:08;21.50;99.90
30648;DHT22;17683;53.360;9.736;2023-08-06T11:08:36;21.40;99.90
30648;DHT22;17683;53.360;9.736;2023-08-06T11:11:13;21.40;99.90
30648;DHT22;17683;53.360;9.736;2023-08-06T11:13:43;21.40;99.90
30648;DHT22;17683;53.360;9.736;2023-08-06T11:16:10;21.50;99.90
30648;DHT22;17683;53.360;9.736;2023-08-06T11:18:36;21.40;99.90
30648;DHT22;17683;53.360;9.736;2023-08-06T11:21:02;21.40;99.90
30648;DHT22;17683;53.360;9.736;2023-08-06T11:23:28;21.50;99.90
30648;DHT22;17683;53.360;9.736;2023-08-06T11:25:58;21.40;99.90
30648;DHT22;17683;53.360;9.736;2023-08-06T11:28:24;21.40;99.90
30648;DHT22;17683;53.360;9.736;2023-08-06T11:30:51;21.40;99.90
30648;DHT22;17683;53.360;9.736;2023-08-06T11:33:21;21.50;99.90
30648;DHT22;17683;53.360;9.736;2023-08-06T11:35:48;21.60;99.90
30648;DHT22;17683;53.360;9.736;2023-08-06T11:38:14;21.50;99.90
30648;DHT22;17683;53.360;9.736;2023-08-06T11:40:39;21.60;99.90
30648;DHT22;17683;53.360;9.736;2023-08-06T11:43:06;21.60;99.90
30648;DHT22;17683;53.360;9.736;2023-08-06T11:45:35;21.80;99.90
30648;DHT22;17683;53.360;9.736;2023-08-06T11:48:01;21.90;99.90
30648;DHT22;17683;53.360;9.736;2023-08-06T11:50:27;21.90;99.90
30648;DHT22;17683;53.360;9.736;2023-08-06T11:53:02;21.90;99.90
30648;DHT22;17683;53.360;9.736;2023-08-06T11:55:29;21.90;99.90
30648;DHT22;17683;53.360;9.736;2023-08-06T11:57:55;21.90;99.90
30648;DHT22;17683;53.360;9.736;2023-08-06T12:00:24;22.00;99.90
30648;DHT22;17683;53.360;9.736;2023-08-06T12:02:50;21.90;99.90
30648;DHT22;17683;53.360;9.736;2023-08-06T12:05:21;22.00;99.90
30648;DHT22;17683;53.360;9.736;2023-08-06T12:07:57;21.80;99.90
30648;DHT22;17683;53.360;9.736;2023-08-06T12:10:28;22.00;99.90
30648;DHT22;17683;53.360;9.736;2023-08-06T12:12:55;21.80;99.90
30648;DHT22;17683;53.360;9.736;2023-08-06T12:15:21;21.70;99.90
30648;DHT22;17683;53.360;9.736;2023-08-06T12:17:47;21.60;99.90
30648;DHT22;17683;53.360;9.736;2023-08-06T12:20:13;21.80;99.90
30648;DHT22;17683;53.360;9.736;2023-08-06T12:22:39;21.90;99.90
30648;DHT22;17683;53.360;9.736;2023-08-06T12:25:11;21.80;99.90
30648;DHT22;17683;53.360;9.736;2023-08-06T12:27:39;21.70;99.90
30648;DHT22;17683;53.360;9.736;2023-08-06T12:30:05;21.70;99.90
30648;DHT22;17683;53.360;9.736;2023-08-06T12:32:32;21.60;99.90
30648;DHT22;17683;53.360;9.736;2023-08-06T12:34:57;21.70;99.90
30648;DHT22;17683;53.360;9.736;2023-08-06T12:37:24;21.90;99.90
30648;DHT22;17683;53.360;9.736;2023-08-06T12:39:50;21.80;99.90
30648;DHT22;17683;53.360;9.736;2023-08-06T12:42:16;21.80;99.90
30648;DHT22;17683;53.360;9.736;2023-08-06T12:44:42;22.00;99.90
30648;DHT22;17683;53.360;9.736;2023-08-06T12:47:08;22.00;99.90
30648;DHT22;17683;53.360;9.736;2023-08-06T12:49:34;22.30;99.90
30648;DHT22;17683;53.360;9.736;2023-08-06T12:51:59;22.30;99.90
30648;DHT22;17683;53.360;9.736;2023-08-06T12:54:26;22.20;99.90
30648;DHT22;17683;53.360;9.736;2023-08-06T12:56:51;22.50;99.90
30648;DHT22;17683;53.360;9.736;2023-08-06T12:59:18;22.60;99.90
30648;DHT22;17683;53.360;9.736;2023-08-06T13:01:44;22.80;99.90
30648;DHT22;17683;53.360;9.736;2023-08-06T13:04:10;22.80;99.90
30648;DHT22;17683;53.360;9.736;2023-08-06T13:06:37;22.70;99.90
30648;DHT22;17683;53.360;9.736;2023-08-06T13:09:03;22.80;99.90
30648;DHT22;17683;53.360;9.736;2023-08-06T13:11:30;22.50;99.90
30648;DHT22;17683;53.360;9.736;2023-08-06T13:14:03;22.40;99.90
30648;DHT22;17683;53.360;9.736;2023-08-06T13:16:28;22.40;99.90
30648;DHT22;17683;53.360;9.736;2023-08-06T13:18:54;22.60;99.90
30648;DHT22;17683;53.360;9.736;2023-08-06T13:21:20;22.50;99.90
30648;DHT22;17683;53.360;9.736;2023-08-06T13:23:46;22.60;99.90
30648;DHT22;17683;53.360;9.736;2023-08-06T13:26:13;22.50;99.90
30648;DHT22;17683;53.360;9.736;2023-08-06T13:28:39;22.40;99.90
30648;DHT22;17683;53.360;9.736;2023-08-06T13:31:04;22.50;99.90
30648;DHT22;17683;53.360;9.736;2023-08-06T13:33:30;22.40;99.90
30648;DHT22;17683;53.360;9.736;2023-08-06T13:35:56;22.50;99.90
30648;DHT22;17683;53.360;9.736;2023-08-06T13:38:22;22.60;99.90
30648;DHT22;17683;53.360;9.736;2023-08-06T13:40:48;22.60;99.90
30648;DHT22;17683;53.360;9.736;2023-08-06T13:43:13;22.60;99.90
30648;DHT22;17683;53.360;9.736;2023-08-06T13:45:41;22.70;99.90
30648;DHT22;17683;53.360;9.736;2023-08-06T13:48:07;22.90;99.90
30648;DHT22;17683;53.360;9.736;2023-08-06T13:50:32;23.00;99.90
30648;DHT22;17683;53.360;9.736;2023-08-06T13:52:58;23.10;99.90
30648;DHT22;17683;53.360;9.736;2023-08-06T13:55:24;22.90;99.90
30648;DHT22;17683;53.360;9.736;2023-08-06T13:57:49;22.80;99.90
30648;DHT22;17683;53.360;9.736;2023-08-06T14:00:16;22.70;99.90
30648;DHT22;17683;53.360;9.736;2023-08-06T14:02:42;22.50;99.90
30648;DHT22;17683;53.360;9.736;2023-08-06T14:05:09;22.00;99.90
30648;DHT22;17683;53.360;9.736;2023-08-06T14:07:35;21.70;99.90
30648;DHT22;17683;53.360;9.736;2023-08-06T14:10:01;21.70;99.90
30648;DHT22;17683;53.360;9.736;2023-08-06T14:12:26;21.50;99.90
30648;DHT22;17683;53.360;9.736;2023-08-06T14:14:52;21.40;99.90
30648;DHT22;17683;53.360;9.736;2023-08-06T14:17:18;21.30;99.90
30648;DHT22;17683;53.360;9.736;2023-08-06T14:19:43;21.30;99.90
30648;DHT22;17683;53.360;9.736;2023-08-06T14:22:09;21.30;99.90
30648;DHT22;17683;53.360;9.736;2023-08-06T14:24:35;21.10;99.90
30648;DHT22;17683;53.360;9.736;2023-08-06T14:27:00;21.10;99.90
30648;DHT22;17683;53.360;9.736;2023-08-06T14:29:26;21.10;99.90
30648;DHT22;17683;53.360;9.736;2023-08-06T14:31:52;21.00;99.90
30648;DHT22;17683;53.360;9.736;2023-08-06T14:34:17;21.00;99.90
30648;DHT22;17683;53.360;9.736;2023-08-06T14:36:43;20.90;99.90
30648;DHT22;17683;53.360;9.736;2023-08-06T14:39:09;21.00;99.90
30648;DHT22;17683;53.360;9.736;2023-08-06T14:41:34;20.80;99.90
30648;DHT22;17683;53.360;9.736;2023-08-06T14:44:00;20.80;99.90
30648;DHT22;17683;53.360;9.736;2023-08-06T14:46:26;20.70;99.90
30648;DHT22;17683;53.360;9.736;2023-08-06T14:48:51;20.80;99.90
30648;DHT22;17683;53.360;9.736;2023-08-06T14:51:17;20.80;99.90
30648;DHT22;17683;53.360;9.736;2023-08-06T14:53:45;20.80;99.90
30648;DHT22;17683;53.360;9.736;2023-08-06T14:56:11;20.80;99.90
30648;DHT22;17683;53.360;9.736;2023-08-06T14:58:37;20.70;99.90
30648;DHT22;17683;53.360;9.736;2023-08-06T15:01:02;20.70;99.90
30648;DHT22;17683;53.360;9.736;2023-08-06T15:03:28;20.80;99.90
30648;DHT22;17683;53.360;9.736;2023-08-06T15:05:54;20.60;99.90
30648;DHT22;17683;53.360;9.736;2023-08-06T15:08:20;20.70;99.90
30648;DHT22;17683;53.360;9.736;2023-08-06T15:10:52;20.50;99.90
30648;DHT22;17683;53.360;9.736;2023-08-06T15:13:18;20.20;99.90
30648;DHT22;17683;53.360;9.736;2023-08-06T15:15:49;20.10;99.90
30648;DHT22;17683;53.360;9.736;2023-08-06T15:18:15;19.90;99.90
30648;DHT22;17683;53.360;9.736;2023-08-06T15:20:41;19.60;99.90
30648;DHT22;17683;53.360;9.736;2023-08-06T15:23:07;19.50;99.90
30648;DHT22;17683;53.360;9.736;2023-08-06T15:25:32;19.20;99.90
30648;DHT22;17683;53.360;9.736;2023-08-06T15:27:58;19.30;99.90
30648;DHT22;17683;53.360;9.736;2023-08-06T15:30:24;19.20;99.90
30648;DHT22;17683;53.360;9.736;2023-08-06T15:32:50;19.10;99.90